createdAt,value
2022-11-30T00:01:16.942Z,49.17
2022-11-30T00:03:44.738Z,47.35
2022-11-30T00:06:15.070Z,47.25
2022-11-30T00:08:42.902Z,46.97
2022-11-30T00:11:12.521Z,46.83
2022-11-30T00:13:40.007Z,44.90
2022-11-30T00:16:08.342Z,45.25
2022-11-30T00:18:36.754Z,43.50
2022-11-30T00:21:06.437Z,45.53
2022-11-30T00:23:38.905Z,45.88
2022-11-30T00:26:09.019Z,45.42
2022-11-30T00:28:37.771Z,45.65
2022-11-30T00:31:07.776Z,44.05
2022-11-30T00:33:37.637Z,45.97
2022-11-30T00:36:07.791Z,47.42
2022-11-30T00:38:35.911Z,45.92
2022-11-30T00:41:03.808Z,46.20
2022-11-30T00:43:31.414Z,45.50
2022-11-30T00:45:59.292Z,46.03
2022-11-30T00:48:26.789Z,44.28
2022-11-30T00:50:54.510Z,43.67
2022-11-30T00:53:22.458Z,46.33
2022-11-30T00:55:50.029Z,45.22
2022-11-30T00:58:17.814Z,46.72
2022-11-30T01:00:45.785Z,44.88
2022-11-30T01:03:13.982Z,45.83
2022-11-30T01:05:43.201Z,45.53
2022-11-30T01:08:11.875Z,45.17
2022-11-30T01:10:41.554Z,44.60
2022-11-30T01:13:11.479Z,44.67
2022-11-30T01:15:41.987Z,43.15
2022-11-30T01:18:10.330Z,45.80
2022-11-30T01:20:43.326Z,43.78
2022-11-30T01:23:11.579Z,42.00
2022-11-30T01:28:06.935Z,39.83
2022-11-30T01:30:34.403Z,42.40
2022-11-30T01:33:06.329Z,41.40
2022-11-30T01:35:33.874Z,42.13
2022-11-30T01:38:01.452Z,41.70
2022-11-30T01:40:28.855Z,39.75
2022-11-30T01:42:57.427Z,40.55
2022-11-30T01:45:24.899Z,40.15
2022-11-30T01:47:56.571Z,41.00
2022-11-30T01:50:34.756Z,39.42
2022-11-30T01:55:42.273Z,38.70
2022-11-30T01:58:19.571Z,40.20
2022-11-30T02:00:48.123Z,42.05
2022-11-30T02:03:39.788Z,40.65
2022-11-30T02:06:08.290Z,39.67
2022-11-30T02:08:35.859Z,42.03
2022-11-30T02:11:06.381Z,44.45
2022-11-30T02:13:39.679Z,41.13
2022-11-30T02:16:28.145Z,44.05
2022-11-30T02:19:24.824Z,43.30
2022-11-30T02:22:17.663Z,42.92
2022-11-30T02:25:16.747Z,40.80
2022-11-30T02:27:56.475Z,39.60
2022-11-30T02:30:24.581Z,39.83
2022-11-30T02:33:02.294Z,40.47
2022-11-30T02:35:34.985Z,39.08
2022-11-30T02:38:04.205Z,39.17
2022-11-30T02:40:32.051Z,40.00
2022-11-30T02:43:01.494Z,41.90
2022-11-30T02:45:44.543Z,41.58
2022-11-30T02:48:18.386Z,40.38
2022-11-30T02:50:57.401Z,36.72
2022-11-30T02:53:25.238Z,39.83
2022-11-30T02:55:54.535Z,39.47
2022-11-30T02:58:22.466Z,41.40
2022-11-30T03:00:50.285Z,40.90
2022-11-30T03:03:17.767Z,41.42
2022-11-30T03:05:45.204Z,40.25
2022-11-30T03:08:12.600Z,40.17
2022-11-30T03:10:40.025Z,40.83
2022-11-30T03:13:07.512Z,40.05
2022-11-30T03:15:35.611Z,41.33
2022-11-30T03:20:31.230Z,40.08
2022-11-30T03:23:02.391Z,41.22
2022-11-30T03:25:29.943Z,43.22
2022-11-30T03:27:57.349Z,43.65
2022-11-30T03:30:24.738Z,41.40
2022-11-30T03:32:52.682Z,41.20
2022-11-30T03:35:20.343Z,39.42
2022-11-30T03:37:48.094Z,39.50
2022-11-30T03:40:15.839Z,41.13
2022-11-30T03:42:43.298Z,40.47
2022-11-30T03:45:11.120Z,40.10
2022-11-30T03:47:38.508Z,39.70
2022-11-30T03:50:06.745Z,38.17
2022-11-30T03:52:34.331Z,38.50
2022-11-30T03:55:01.779Z,40.35
2022-11-30T03:57:29.199Z,40.22
2022-11-30T03:59:56.819Z,39.30
2022-11-30T04:02:24.296Z,38.03
2022-11-30T04:04:51.777Z,38.35
2022-11-30T04:07:19.285Z,37.83
2022-11-30T04:09:46.976Z,39.08
2022-11-30T04:12:14.574Z,36.95
2022-11-30T04:14:41.985Z,37.75
2022-11-30T04:17:09.365Z,38.95
2022-11-30T04:19:36.777Z,37.75
2022-11-30T04:22:04.191Z,38.15
2022-11-30T04:24:31.719Z,38.58
2022-11-30T04:26:59.138Z,38.00
2022-11-30T04:29:26.511Z,35.72
2022-11-30T04:31:53.918Z,36.07
2022-11-30T04:34:21.327Z,36.17
2022-11-30T04:36:48.732Z,36.05
2022-11-30T04:39:16.506Z,37.42
2022-11-30T04:41:43.916Z,37.78
2022-11-30T04:44:11.313Z,35.83
2022-11-30T04:46:38.864Z,36.58
2022-11-30T04:49:06.674Z,36.33
2022-11-30T04:51:34.113Z,35.13
2022-11-30T04:54:01.553Z,35.92
2022-11-30T04:56:29.093Z,34.40
2022-11-30T04:58:56.463Z,35.40
2022-11-30T05:01:23.940Z,35.67
2022-11-30T05:03:51.456Z,35.90
2022-11-30T05:06:18.975Z,34.08
2022-11-30T05:08:46.535Z,35.90
2022-11-30T05:11:14.105Z,36.53
2022-11-30T05:13:41.530Z,36.30
2022-11-30T05:16:10.631Z,36.53
2022-11-30T05:18:38.125Z,35.63
2022-11-30T05:21:05.670Z,37.10
2022-11-30T05:23:33.121Z,37.05
2022-11-30T05:26:02.921Z,38.60
2022-11-30T05:28:30.552Z,38.00
2022-11-30T05:31:05.996Z,38.28
2022-11-30T05:33:33.926Z,38.05
2022-11-30T05:36:04.507Z,39.03
2022-11-30T05:38:34.674Z,38.25
2022-11-30T05:41:03.025Z,39.60
2022-11-30T05:43:30.446Z,36.67
2022-11-30T05:46:05.611Z,37.58
2022-11-30T05:48:33.390Z,38.22
2022-11-30T05:51:26.910Z,37.10
2022-11-30T05:53:54.574Z,37.28
2022-11-30T05:56:22.313Z,37.97
2022-11-30T05:58:49.738Z,37.42
2022-11-30T06:01:22.110Z,37.22
2022-11-30T06:03:50.462Z,35.47
2022-11-30T06:08:47.181Z,35.05
2022-11-30T06:11:15.176Z,35.15
2022-11-30T06:13:42.775Z,35.75
2022-11-30T06:16:10.431Z,37.10
2022-11-30T06:18:38.620Z,35.90
2022-11-30T06:21:09.346Z,33.10
2022-11-30T06:23:37.619Z,31.85
2022-11-30T06:28:33.882Z,30.38
2022-11-30T06:31:02.662Z,32.28
2022-11-30T06:33:30.077Z,33.67
2022-11-30T06:35:57.886Z,32.88
2022-11-30T06:38:25.967Z,33.80
2022-11-30T06:40:53.938Z,33.55
2022-11-30T06:43:21.450Z,30.33
2022-11-30T06:45:49.015Z,28.63
2022-11-30T06:48:16.493Z,28.48
2022-11-30T06:50:49.762Z,27.95
2022-11-30T06:53:17.650Z,28.77
2022-11-30T06:55:45.054Z,31.75
2022-11-30T06:58:12.681Z,33.38
2022-11-30T07:00:40.236Z,33.67
2022-11-30T07:03:07.832Z,32.15
2022-11-30T07:05:41.047Z,31.75
2022-11-30T07:08:08.512Z,33.08
2022-11-30T07:10:43.061Z,32.90
2022-11-30T07:13:15.950Z,34.70
2022-11-30T07:15:43.717Z,33.88
2022-11-30T07:18:12.224Z,33.05
2022-11-30T07:20:39.779Z,36.70
2022-11-30T07:23:26.642Z,34.78
2022-11-30T07:26:07.964Z,33.70
2022-11-30T07:28:51.299Z,33.03
2022-11-30T07:31:23.662Z,30.67
2022-11-30T07:33:51.682Z,30.73
2022-11-30T07:36:20.627Z,31.98
2022-11-30T07:38:48.356Z,32.40
2022-11-30T07:41:16.112Z,31.48
2022-11-30T07:43:43.617Z,31.83
2022-11-30T07:46:14.078Z,29.63
2022-11-30T07:48:42.538Z,28.60
2022-11-30T07:51:15.825Z,26.52
2022-11-30T07:53:43.823Z,26.05
2022-11-30T07:56:17.274Z,24.17
2022-11-30T07:58:45.106Z,26.38
2022-11-30T08:01:15.708Z,24.92
2022-11-30T08:03:43.460Z,23.30
2022-11-30T08:06:13.681Z,22.17
2022-11-30T08:08:44.186Z,20.13
2022-11-30T08:11:15.250Z,22.17
2022-11-30T08:13:43.470Z,15.90
2022-11-30T08:18:40.914Z,18.90
2022-11-30T08:23:45.274Z,18.38
2022-11-30T08:26:15.367Z,22.23
2022-11-30T08:28:44.746Z,19.85
2022-11-30T08:31:23.965Z,22.58
2022-11-30T08:33:58.869Z,20.50
2022-11-30T08:36:27.585Z,19.60
2022-11-30T08:38:56.853Z,19.23
2022-11-30T08:41:24.771Z,22.33
2022-11-30T08:43:52.896Z,21.30
2022-11-30T08:49:25.174Z,21.67
2022-11-30T08:54:45.923Z,24.75
2022-11-30T08:57:19.297Z,24.23
2022-11-30T08:59:47.387Z,21.85
2022-11-30T09:04:48.783Z,18.00
2022-11-30T09:07:16.542Z,19.02
2022-11-30T09:09:44.044Z,20.67
2022-11-30T09:12:11.545Z,21.40
2022-11-30T09:14:39.265Z,21.90
2022-11-30T09:17:06.962Z,21.83
2022-11-30T09:19:34.371Z,22.63
2022-11-30T09:22:01.802Z,23.05
2022-11-30T09:24:29.386Z,18.30
2022-11-30T09:26:57.434Z,18.95
2022-11-30T09:29:24.995Z,19.25
2022-11-30T09:31:52.618Z,20.38
2022-11-30T09:34:23.592Z,20.25
2022-11-30T09:36:51.176Z,19.20
2022-11-30T09:39:18.585Z,19.65
2022-11-30T09:42:04.484Z,19.88
2022-11-30T09:44:51.050Z,17.05
2022-11-30T09:47:41.306Z,17.90
2022-11-30T09:50:21.031Z,17.02
2022-11-30T09:53:03.814Z,17.92
2022-11-30T09:55:36.151Z,17.13
2022-11-30T09:58:05.621Z,20.42
2022-11-30T10:00:34.955Z,18.35
2022-11-30T10:03:04.689Z,21.42
2022-11-30T10:05:45.236Z,21.05
2022-11-30T10:08:28.071Z,21.52
2022-11-30T10:11:10.402Z,21.35
2022-11-30T10:14:05.793Z,24.02
2022-11-30T10:17:16.866Z,20.98
2022-11-30T10:19:51.802Z,23.67
2022-11-30T10:23:04.726Z,19.13
2022-11-30T10:25:55.626Z,18.23
2022-11-30T10:28:47.906Z,15.73
2022-11-30T10:31:17.102Z,17.10
2022-11-30T10:33:54.230Z,16.17
2022-11-30T10:36:37.816Z,18.40
2022-11-30T10:39:16.370Z,20.02
2022-11-30T10:42:02.728Z,17.80
2022-11-30T10:44:45.336Z,17.38
2022-11-30T10:47:23.758Z,20.38
2022-11-30T10:52:28.999Z,17.20
2022-11-30T10:55:03.777Z,20.30
2022-11-30T10:57:33.234Z,17.98
2022-11-30T11:00:05.805Z,20.20
2022-11-30T11:02:40.143Z,20.27
2022-11-30T11:05:23.468Z,19.65
2022-11-30T11:08:19.127Z,19.90
2022-11-30T11:10:51.835Z,20.88
2022-11-30T11:13:38.272Z,19.77
2022-11-30T11:16:09.419Z,21.63
2022-11-30T11:18:51.042Z,22.75
2022-11-30T11:21:20.453Z,21.17
2022-11-30T11:23:51.871Z,20.52
2022-11-30T11:26:23.674Z,19.77
2022-11-30T11:28:53.795Z,20.35
2022-11-30T11:31:48.971Z,21.88
2022-11-30T11:34:31.611Z,22.73
2022-11-30T11:37:14.036Z,21.42
2022-11-30T11:39:42.709Z,22.77
2022-11-30T11:42:23.299Z,21.05
2022-11-30T11:44:54.817Z,22.95
2022-11-30T11:47:42.531Z,20.70
2022-11-30T11:50:57.809Z,18.60
2022-11-30T11:53:15.304Z,21.17
2022-11-30T11:55:46.024Z,20.45
2022-11-30T11:58:19.907Z,22.30
2022-11-30T12:01:05.596Z,21.35
2022-11-30T12:03:50.633Z,22.15
2022-11-30T12:06:19.413Z,23.88
2022-11-30T12:08:56.129Z,23.05
2022-11-30T12:11:31.698Z,21.83
2022-11-30T12:13:59.592Z,19.63
2022-11-30T12:16:58.045Z,21.20
2022-11-30T12:19:56.950Z,18.90
2022-11-30T12:22:34.487Z,20.17
2022-11-30T12:25:34.912Z,17.77
2022-11-30T12:28:33.671Z,19.15
2022-11-30T12:31:17.203Z,21.02
2022-11-30T12:33:47.666Z,21.60
2022-11-30T12:36:44.094Z,20.95
2022-11-30T12:39:41.102Z,19.33
2022-11-30T12:42:18.394Z,17.25
2022-11-30T12:44:45.901Z,17.07
2022-11-30T12:47:28.959Z,16.77
2022-11-30T12:50:30.514Z,16.38
2022-11-30T12:53:09.372Z,16.63
2022-11-30T12:55:55.300Z,17.77
2022-11-30T12:58:42.241Z,17.90
2022-11-30T13:01:39.085Z,18.30
2022-11-30T13:04:27.254Z,18.17
2022-11-30T13:07:12.945Z,19.70
2022-11-30T13:09:53.209Z,19.65
2022-11-30T13:12:37.622Z,19.38
2022-11-30T13:15:16.897Z,19.20
2022-11-30T13:17:45.824Z,19.40
2022-11-30T13:20:36.358Z,19.58
2022-11-30T13:23:11.289Z,18.23
2022-11-30T13:26:07.358Z,19.08
2022-11-30T13:28:41.760Z,19.13
2022-11-30T13:31:31.507Z,20.77
2022-11-30T13:34:00.156Z,21.67
2022-11-30T13:37:00.283Z,22.55
2022-11-30T13:39:46.269Z,20.77
2022-11-30T13:42:30.104Z,19.20
2022-11-30T13:45:13.819Z,19.58
2022-11-30T13:47:51.059Z,20.58
2022-11-30T13:50:40.103Z,21.08
2022-11-30T13:53:22.540Z,22.02
2022-11-30T13:55:51.919Z,20.80
2022-11-30T13:58:20.457Z,21.40
2022-11-30T14:01:02.881Z,23.25
2022-11-30T14:06:41.756Z,24.48
2022-11-30T14:09:40.835Z,27.88
2022-11-30T14:12:32.844Z,30.08
2022-11-30T14:15:01.743Z,28.45
2022-11-30T14:17:35.084Z,26.25
2022-11-30T14:20:17.928Z,27.10
2022-11-30T14:22:51.163Z,26.30
2022-11-30T14:25:21.632Z,26.73
2022-11-30T14:27:54.545Z,24.80
2022-11-30T14:30:34.902Z,24.85
2022-11-30T14:33:16.612Z,23.95
2022-11-30T14:35:54.175Z,25.25
2022-11-30T14:38:28.210Z,26.10
2022-11-30T14:40:58.878Z,25.48
2022-11-30T14:43:30.077Z,25.48
2022-11-30T14:46:05.450Z,28.27
2022-11-30T14:48:40.806Z,30.05
2022-11-30T14:51:11.225Z,30.95
2022-11-30T14:53:52.986Z,30.77
2022-11-30T14:56:31.038Z,31.42
2022-11-30T15:01:57.401Z,31.70
2022-11-30T15:04:27.467Z,31.20
2022-11-30T15:06:56.393Z,32.60
2022-11-30T15:09:28.217Z,33.35
2022-11-30T15:11:56.506Z,31.45
2022-11-30T15:14:24.454Z,33.28
2022-11-30T15:16:54.250Z,33.75
2022-11-30T15:19:28.822Z,33.53
2022-11-30T15:21:58.011Z,33.92
2022-11-30T15:24:26.706Z,34.47
2022-11-30T15:27:14.174Z,33.55
2022-11-30T15:30:00.837Z,33.17
2022-11-30T15:32:31.286Z,33.53
2022-11-30T15:35:04.119Z,35.28
2022-11-30T15:37:41.552Z,36.28
2022-11-30T15:40:10.879Z,36.60
2022-11-30T15:42:40.493Z,36.47
2022-11-30T15:45:31.089Z,42.28
2022-11-30T15:48:02.619Z,48.40
2022-11-30T15:50:30.111Z,50.88
2022-11-30T15:53:08.725Z,52.90
2022-11-30T15:55:54.495Z,53.45
2022-11-30T15:58:48.140Z,53.65
2022-11-30T16:01:17.357Z,52.70
2022-11-30T16:04:04.635Z,52.40
2022-11-30T16:06:36.462Z,52.53
2022-11-30T16:09:18.494Z,52.95
2022-11-30T16:11:52.017Z,52.28
2022-11-30T16:14:24.411Z,54.55
2022-11-30T16:17:15.894Z,55.20
2022-11-30T16:19:47.902Z,56.17
2022-11-30T16:22:16.388Z,55.53
2022-11-30T16:24:45.135Z,56.22
2022-11-30T16:27:20.152Z,59.30
2022-11-30T16:29:52.137Z,57.35
2022-11-30T16:32:20.283Z,61.45
2022-11-30T16:34:48.225Z,63.60
2022-11-30T16:37:18.497Z,66.10
2022-11-30T16:39:46.340Z,60.47
2022-11-30T16:44:41.661Z,61.85
2022-11-30T16:47:09.116Z,57.22
2022-11-30T16:49:36.580Z,57.60
2022-11-30T16:52:04.152Z,55.80
2022-11-30T16:54:31.846Z,56.95
2022-11-30T16:56:59.459Z,53.80
2022-11-30T16:59:27.024Z,53.75
2022-11-30T17:01:54.547Z,52.78
2022-11-30T17:04:26.108Z,51.05
2022-11-30T17:07:02.473Z,53.15
2022-11-30T17:09:31.003Z,51.50
2022-11-30T17:11:59.897Z,49.40
2022-11-30T17:14:27.912Z,47.83
2022-11-30T17:16:55.553Z,47.40
2022-11-30T17:19:23.028Z,49.08
2022-11-30T17:21:50.906Z,50.30
2022-11-30T17:24:18.518Z,47.85
2022-11-30T17:26:48.899Z,52.80
2022-11-30T17:29:16.368Z,50.97
2022-11-30T17:31:43.831Z,49.40
2022-11-30T17:34:11.733Z,49.63
2022-11-30T17:36:39.210Z,49.45
2022-11-30T17:39:07.665Z,48.58
2022-11-30T17:41:35.272Z,47.13
2022-11-30T17:44:03.434Z,48.30
2022-11-30T17:49:01.641Z,43.47
2022-11-30T17:51:31.620Z,49.45
2022-11-30T17:53:59.367Z,47.85
2022-11-30T17:56:26.862Z,47.20
2022-11-30T17:58:54.381Z,47.20
2022-11-30T18:01:24.652Z,46.47
2022-11-30T18:03:53.612Z,43.60
2022-11-30T18:06:21.104Z,44.75
2022-11-30T18:08:48.601Z,45.83
2022-11-30T18:11:22.066Z,44.65
2022-11-30T18:13:51.743Z,50.00
2022-11-30T18:16:28.277Z,47.70
2022-11-30T18:18:58.440Z,50.42
2022-11-30T18:21:28.284Z,46.03
2022-11-30T18:23:57.725Z,42.80
2022-11-30T18:26:26.439Z,43.35
2022-11-30T18:28:55.590Z,45.58
2022-11-30T18:31:23.333Z,43.08
2022-11-30T18:34:06.685Z,41.42
2022-11-30T18:36:34.942Z,39.13
2022-11-30T18:39:02.634Z,41.42
2022-11-30T18:41:30.470Z,39.80
2022-11-30T18:43:58.510Z,45.35
2022-11-30T18:46:27.122Z,41.83
2022-11-30T18:48:56.806Z,39.63
2022-11-30T18:51:27.214Z,41.25
2022-11-30T18:54:00.363Z,42.40
2022-11-30T18:56:30.318Z,39.47
2022-11-30T18:58:59.892Z,40.17
2022-11-30T19:01:28.651Z,40.03
2022-11-30T19:03:59.139Z,39.05
2022-11-30T19:06:32.809Z,39.28
2022-11-30T19:09:05.675Z,40.28
2022-11-30T19:11:33.944Z,41.38
2022-11-30T19:14:01.993Z,40.75
2022-11-30T19:16:31.449Z,42.30
2022-11-30T19:19:01.006Z,39.97
2022-11-30T19:21:29.252Z,42.15
2022-11-30T19:26:24.571Z,42.20
2022-11-30T19:28:54.436Z,48.40
2022-11-30T19:31:23.043Z,45.00
2022-11-30T19:33:53.713Z,42.38
2022-11-30T19:36:23.910Z,45.03
2022-11-30T19:38:51.590Z,43.30
2022-11-30T19:41:20.550Z,44.13
2022-11-30T19:43:58.110Z,45.17
2022-11-30T19:46:28.829Z,45.45
2022-11-30T19:49:00.433Z,44.72
2022-11-30T19:51:29.357Z,44.40
2022-11-30T19:53:57.613Z,46.75
2022-11-30T19:56:26.012Z,53.47
2022-11-30T19:58:53.773Z,59.92
2022-11-30T20:01:23.571Z,64.05
2022-11-30T20:03:55.546Z,62.40
2022-11-30T20:06:35.891Z,57.80
2022-11-30T20:09:08.120Z,60.28
2022-11-30T20:11:35.749Z,59.10
2022-11-30T20:14:04.340Z,60.92
2022-11-30T20:16:31.898Z,60.97
2022-11-30T20:19:01.390Z,60.85
2022-11-30T20:21:32.092Z,57.70
2022-11-30T20:24:01.415Z,58.05
2022-11-30T20:26:31.725Z,59.15
2022-11-30T20:29:01.520Z,59.13
2022-11-30T20:31:30.668Z,62.42
2022-11-30T20:33:59.107Z,58.00
2022-11-30T20:36:26.884Z,53.72
2022-11-30T20:38:54.589Z,55.50
2022-11-30T20:41:24.404Z,61.35
2022-11-30T20:43:52.657Z,54.22
2022-11-30T20:48:52.530Z,52.08
2022-11-30T20:51:31.379Z,53.60
2022-11-30T20:54:05.519Z,52.80
2022-11-30T20:56:35.273Z,57.20
2022-11-30T20:59:05.940Z,57.60
2022-11-30T21:01:34.145Z,58.67
2022-11-30T21:06:31.109Z,57.63
2022-11-30T21:08:59.448Z,56.45
2022-11-30T21:11:27.770Z,59.22
2022-11-30T21:13:55.796Z,58.17
2022-11-30T21:16:28.075Z,54.78
2022-11-30T21:19:00.110Z,54.25
2022-11-30T21:21:33.089Z,51.88
2022-11-30T21:24:02.745Z,56.10
2022-11-30T21:26:36.333Z,54.03
2022-11-30T21:29:12.438Z,53.25
2022-11-30T21:31:40.004Z,53.45
2022-11-30T21:34:07.502Z,53.72
2022-11-30T21:36:35.131Z,53.22
2022-11-30T21:39:06.389Z,51.25
2022-11-30T21:41:36.774Z,49.40
2022-11-30T21:44:05.594Z,48.22
2022-11-30T21:46:33.595Z,49.65
2022-11-30T21:51:31.581Z,45.53
2022-11-30T21:54:01.729Z,49.28
2022-11-30T21:56:33.836Z,49.20
2022-11-30T21:59:01.741Z,48.38
2022-11-30T22:01:34.645Z,46.35
2022-11-30T22:04:04.519Z,48.40
2022-11-30T22:06:34.001Z,45.97
2022-11-30T22:09:07.779Z,47.05
2022-11-30T22:11:40.570Z,45.95
2022-11-30T22:14:11.975Z,46.03
2022-11-30T22:16:40.026Z,46.70
2022-11-30T22:21:35.044Z,44.00
2022-11-30T22:24:05.696Z,46.70
2022-11-30T22:26:38.485Z,49.75
2022-11-30T22:29:16.358Z,48.67
2022-11-30T22:31:46.553Z,49.35
2022-11-30T22:34:14.384Z,48.42
2022-11-30T22:36:43.537Z,50.92
2022-11-30T22:39:18.928Z,40.03
2022-11-30T22:41:53.069Z,49.80
2022-11-30T22:44:23.504Z,48.83
2022-11-30T22:46:51.108Z,49.28
2022-11-30T22:49:21.733Z,49.53
2022-11-30T22:51:50.471Z,50.88
2022-11-30T22:54:18.086Z,51.08
2022-11-30T22:56:46.559Z,52.20
2022-11-30T22:59:15.736Z,52.53
2022-11-30T23:01:45.898Z,52.47
2022-11-30T23:04:16.102Z,51.22
2022-11-30T23:06:45.007Z,51.42
2022-11-30T23:09:15.358Z,51.13
2022-11-30T23:11:43.587Z,50.20
2022-11-30T23:14:12.229Z,50.58
2022-11-30T23:16:40.417Z,50.97
2022-11-30T23:19:09.273Z,49.60
2022-11-30T23:21:42.366Z,51.13
2022-11-30T23:24:15.422Z,49.78
2022-11-30T23:26:43.254Z,46.75
2022-11-30T23:29:13.156Z,49.78
2022-11-30T23:31:42.483Z,49.85
2022-11-30T23:34:13.360Z,48.97
2022-11-30T23:36:40.927Z,49.40
2022-11-30T23:39:14.374Z,50.08
2022-11-30T23:41:42.176Z,48.80
2022-11-30T23:44:11.295Z,48.33
2022-11-30T23:46:38.857Z,47.22
2022-11-30T23:49:06.928Z,48.97
2022-11-30T23:51:34.655Z,46.95
2022-11-30T23:54:02.239Z,48.40
2022-11-30T23:56:29.663Z,48.47
2022-11-30T23:58:57.153Z,47.33
